createdAt,value
2022-12-03T00:00:29.589Z,23.60
2022-12-03T00:01:29.557Z,24.60
2022-12-03T00:02:29.625Z,24.90
2022-12-03T00:03:29.751Z,25.00
2022-12-03T00:04:29.537Z,25.30
2022-12-03T00:05:29.519Z,24.00
2022-12-03T00:06:34.375Z,25.40
2022-12-03T00:07:30.557Z,25.10
2022-12-03T00:08:29.639Z,24.10
2022-12-03T00:09:29.530Z,24.50
2022-12-03T00:10:29.542Z,24.00
2022-12-03T00:11:29.467Z,25.30
2022-12-03T00:12:29.459Z,24.80
2022-12-03T00:13:29.490Z,23.80
2022-12-03T00:14:29.439Z,25.00
2022-12-03T00:15:29.499Z,24.60
2022-12-03T00:16:29.452Z,24.80
2022-12-03T00:17:29.412Z,24.70
2022-12-03T00:18:29.411Z,24.70
2022-12-03T00:19:29.439Z,26.30
2022-12-03T00:20:29.393Z,25.20
2022-12-03T00:21:29.371Z,23.50
2022-12-03T00:22:29.353Z,25.60
2022-12-03T00:23:29.382Z,23.70
2022-12-03T00:24:29.333Z,24.80
2022-12-03T00:25:29.326Z,25.00
2022-12-03T00:26:29.322Z,24.10
2022-12-03T00:27:29.332Z,24.50
2022-12-03T00:28:29.373Z,24.80
2022-12-03T00:29:29.292Z,25.70
2022-12-03T00:30:29.285Z,25.00
2022-12-03T00:31:29.320Z,24.40
2022-12-03T00:32:29.254Z,25.30
2022-12-03T00:33:29.265Z,27.30
2022-12-03T00:34:29.237Z,25.50
2022-12-03T00:35:29.227Z,25.80
2022-12-03T00:36:29.265Z,26.30
2022-12-03T00:37:29.207Z,26.20
2022-12-03T00:38:29.230Z,26.40
2022-12-03T00:39:29.186Z,26.30
2022-12-03T00:40:29.177Z,24.50
2022-12-03T00:41:29.176Z,26.80
2022-12-03T00:42:29.160Z,25.20
2022-12-03T00:43:29.171Z,23.80
2022-12-03T00:44:29.154Z,25.70
2022-12-03T00:45:29.127Z,25.90
2022-12-03T00:46:29.150Z,27.30
2022-12-03T00:47:29.110Z,27.10
2022-12-03T00:48:29.127Z,26.20
2022-12-03T00:49:29.088Z,26.20
2022-12-03T00:50:29.069Z,26.40
2022-12-03T00:51:29.070Z,26.40
2022-12-03T00:52:29.051Z,26.80
2022-12-03T00:53:29.076Z,24.80
2022-12-03T00:54:32.154Z,26.20
2022-12-03T00:55:29.029Z,25.70
2022-12-03T00:56:29.017Z,25.10
2022-12-03T00:57:29.011Z,25.30
2022-12-03T00:58:29.017Z,27.40
2022-12-03T00:59:28.995Z,25.90
2022-12-03T01:00:28.973Z,26.10
2022-12-03T01:01:29.028Z,26.80
2022-12-03T01:02:28.963Z,25.30
2022-12-03T01:03:28.970Z,27.20
2022-12-03T01:04:28.969Z,26.20
2022-12-03T01:05:28.932Z,26.10
2022-12-03T01:06:28.913Z,26.30
2022-12-03T01:07:28.955Z,25.00
2022-12-03T01:08:28.922Z,27.40
2022-12-03T01:09:28.891Z,26.40
2022-12-03T01:10:28.875Z,27.20
2022-12-03T01:11:28.875Z,26.40
2022-12-03T01:12:28.866Z,27.50
2022-12-03T01:13:28.852Z,26.10
2022-12-03T01:14:28.856Z,26.00
2022-12-03T01:15:28.833Z,27.70
2022-12-03T01:16:28.881Z,26.40
2022-12-03T01:17:28.824Z,27.50
2022-12-03T01:18:28.797Z,27.50
2022-12-03T01:19:28.887Z,26.20
2022-12-03T01:20:28.774Z,28.10
2022-12-03T01:21:28.774Z,27.20
2022-12-03T01:22:28.773Z,26.80
2022-12-03T01:23:28.765Z,27.70
2022-12-03T01:24:28.759Z,25.70
2022-12-03T01:25:28.730Z,27.40
2022-12-03T01:26:28.717Z,28.50
2022-12-03T01:27:28.717Z,27.30
2022-12-03T01:28:28.698Z,28.70
2022-12-03T01:29:28.708Z,28.30
2022-12-03T01:30:28.677Z,28.80
2022-12-03T01:31:28.706Z,30.30
2022-12-03T01:32:28.659Z,28.50
2022-12-03T01:33:28.673Z,30.50
2022-12-03T01:34:28.657Z,29.60
2022-12-03T01:35:28.630Z,26.70
2022-12-03T01:36:28.620Z,29.10
2022-12-03T01:37:28.617Z,28.70
2022-12-03T01:38:28.600Z,29.40
2022-12-03T01:39:28.611Z,28.40
2022-12-03T01:40:28.580Z,28.50
2022-12-03T01:41:28.574Z,30.50
2022-12-03T01:42:28.552Z,29.50
2022-12-03T01:43:28.562Z,29.70
2022-12-03T01:44:28.559Z,31.80
2022-12-03T01:45:28.651Z,28.20
2022-12-03T01:46:28.567Z,30.00
2022-12-03T01:47:28.521Z,27.90
2022-12-03T01:48:28.492Z,29.90
2022-12-03T01:49:28.509Z,29.50
2022-12-03T01:50:28.474Z,29.20
2022-12-03T01:51:28.488Z,30.00
2022-12-03T01:52:28.464Z,27.90
2022-12-03T01:53:28.463Z,30.80
2022-12-03T01:54:28.456Z,27.10
2022-12-03T01:55:28.434Z,27.80
2022-12-03T01:56:28.421Z,27.90
2022-12-03T01:57:28.414Z,27.10
2022-12-03T01:58:28.402Z,28.40
2022-12-03T01:59:28.406Z,28.10
2022-12-03T02:00:28.376Z,26.20
2022-12-03T02:01:28.446Z,27.50
2022-12-03T02:02:28.363Z,26.50
2022-12-03T02:03:28.409Z,27.20
2022-12-03T02:04:28.385Z,27.90
2022-12-03T02:05:28.336Z,26.50
2022-12-03T02:06:28.323Z,28.50
2022-12-03T02:07:28.493Z,28.00
2022-12-03T02:08:28.321Z,26.20
2022-12-03T02:09:28.308Z,28.20
2022-12-03T02:10:28.287Z,27.10
2022-12-03T02:11:28.281Z,28.00
2022-12-03T02:12:28.260Z,27.10
2022-12-03T02:13:28.268Z,27.30
2022-12-03T02:14:28.259Z,27.30
2022-12-03T02:15:28.238Z,25.20
2022-12-03T02:16:28.309Z,23.60
2022-12-03T02:17:28.213Z,26.30
2022-12-03T02:18:28.200Z,23.30
2022-12-03T02:19:28.211Z,24.60
2022-12-03T02:20:28.171Z,22.50
2022-12-03T02:21:28.178Z,25.30
2022-12-03T02:22:28.171Z,23.60
2022-12-03T02:23:28.153Z,22.60
2022-12-03T02:24:28.171Z,25.80
2022-12-03T02:25:28.132Z,23.80
2022-12-03T02:26:28.118Z,23.40
2022-12-03T02:27:28.110Z,24.80
2022-12-03T02:28:28.111Z,24.30
2022-12-03T02:29:28.113Z,24.60
2022-12-03T02:30:28.082Z,25.40
2022-12-03T02:31:28.120Z,25.60
2022-12-03T02:32:28.056Z,26.10
2022-12-03T02:33:28.051Z,25.90
2022-12-03T02:34:28.054Z,24.10
2022-12-03T02:35:28.033Z,26.30
2022-12-03T02:36:28.014Z,25.20
2022-12-03T02:37:28.015Z,25.60
2022-12-03T02:38:27.995Z,26.10
2022-12-03T02:39:28.012Z,24.80
2022-12-03T02:40:27.994Z,27.70
2022-12-03T02:41:27.972Z,26.80
2022-12-03T02:42:27.965Z,25.90
2022-12-03T02:43:27.957Z,27.00
2022-12-03T02:44:27.957Z,25.20
2022-12-03T02:45:27.933Z,25.40
2022-12-03T02:46:27.961Z,25.70
2022-12-03T02:47:27.927Z,24.20
2022-12-03T02:48:27.896Z,26.30
2022-12-03T02:49:27.912Z,26.40
2022-12-03T02:50:27.877Z,25.80
2022-12-03T02:51:27.875Z,27.40
2022-12-03T02:52:27.869Z,25.10
2022-12-03T02:53:27.849Z,25.50
2022-12-03T02:54:27.857Z,28.30
2022-12-03T02:55:30.716Z,25.60
2022-12-03T02:56:28.826Z,26.20
2022-12-03T02:57:27.809Z,27.10
2022-12-03T02:58:27.798Z,25.80
2022-12-03T02:59:27.817Z,28.40
2022-12-03T03:00:27.830Z,26.80
2022-12-03T03:01:27.826Z,29.40
2022-12-03T03:02:27.865Z,29.70
2022-12-03T03:03:27.751Z,27.70
2022-12-03T03:04:27.758Z,27.50
2022-12-03T03:05:27.741Z,28.70
2022-12-03T03:06:27.721Z,26.70
2022-12-03T03:07:27.778Z,28.80
2022-12-03T03:08:27.700Z,27.40
2022-12-03T03:09:27.711Z,29.10
2022-12-03T03:10:27.682Z,28.40
2022-12-03T03:11:27.673Z,27.50
2022-12-03T03:12:27.653Z,29.70
2022-12-03T03:13:27.664Z,27.90
2022-12-03T03:14:27.653Z,27.30
2022-12-03T03:15:27.633Z,28.80
2022-12-03T03:16:27.690Z,28.20
2022-12-03T03:17:27.622Z,29.40
2022-12-03T03:18:27.594Z,28.70
2022-12-03T03:19:27.615Z,29.50
2022-12-03T03:20:27.585Z,30.50
2022-12-03T03:21:27.575Z,26.90
2022-12-03T03:22:27.560Z,29.40
2022-12-03T03:23:27.556Z,28.80
2022-12-03T03:24:27.567Z,29.40
2022-12-03T03:25:27.535Z,30.50
2022-12-03T03:26:27.523Z,27.90
2022-12-03T03:27:27.515Z,30.90
2022-12-03T03:28:27.499Z,31.10
2022-12-03T03:29:27.526Z,28.90
2022-12-03T03:30:27.477Z,32.20
2022-12-03T03:31:27.522Z,30.10
2022-12-03T03:32:27.466Z,29.60
2022-12-03T03:33:27.457Z,32.10
2022-12-03T03:34:27.458Z,30.20
2022-12-03T03:35:27.438Z,31.70
2022-12-03T03:36:27.435Z,32.30
2022-12-03T03:37:27.429Z,30.60
2022-12-03T03:38:27.408Z,34.00
2022-12-03T03:39:27.417Z,32.10
2022-12-03T03:40:27.379Z,30.50
2022-12-03T03:41:27.376Z,32.70
2022-12-03T03:42:27.370Z,31.30
2022-12-03T03:43:27.368Z,31.30
2022-12-03T03:44:27.364Z,32.90
2022-12-03T03:45:29.412Z,31.00
2022-12-03T03:46:27.383Z,34.40
2022-12-03T03:47:27.321Z,31.50
2022-12-03T03:48:27.312Z,31.10
2022-12-03T03:49:27.316Z,34.40
2022-12-03T03:50:27.281Z,33.40
2022-12-03T03:51:27.281Z,34.20
2022-12-03T03:52:27.267Z,34.70
2022-12-03T03:53:27.259Z,33.80
2022-12-03T03:54:27.263Z,35.70
2022-12-03T03:55:27.241Z,35.60
2022-12-03T03:56:27.221Z,34.80
2022-12-03T03:57:27.214Z,36.60
2022-12-03T03:58:27.204Z,33.70
2022-12-03T03:59:27.222Z,34.80
2022-12-03T04:00:27.194Z,36.50
2022-12-03T04:01:27.261Z,33.20
2022-12-03T04:02:27.164Z,37.30
2022-12-03T04:03:27.162Z,34.60
2022-12-03T04:04:27.219Z,37.20
2022-12-03T04:05:27.134Z,37.00
2022-12-03T04:06:27.124Z,34.60
2022-12-03T04:07:27.140Z,36.20
2022-12-03T04:08:27.107Z,34.90
2022-12-03T04:09:27.118Z,36.00
2022-12-03T04:10:27.109Z,36.60
2022-12-03T04:11:27.090Z,34.40
2022-12-03T04:12:27.076Z,36.40
2022-12-03T04:13:27.089Z,34.80
2022-12-03T04:14:27.077Z,34.20
2022-12-03T04:15:27.056Z,37.30
2022-12-03T04:16:27.119Z,34.50
2022-12-03T04:17:27.017Z,37.60
2022-12-03T04:18:27.023Z,37.10
2022-12-03T04:19:27.016Z,36.00
2022-12-03T04:20:26.981Z,38.00
2022-12-03T04:21:26.998Z,36.80
2022-12-03T04:22:26.966Z,35.70
2022-12-03T04:23:30.906Z,37.40
2022-12-03T04:24:26.961Z,35.70
2022-12-03T04:25:26.948Z,36.90
2022-12-03T04:26:26.927Z,38.80
2022-12-03T04:27:26.919Z,36.90
2022-12-03T04:28:26.909Z,38.10
2022-12-03T04:29:26.926Z,37.00
2022-12-03T04:30:26.983Z,34.10
2022-12-03T04:31:26.878Z,36.90
2022-12-03T04:32:26.869Z,36.50
2022-12-03T04:33:26.851Z,35.40
2022-12-03T04:34:26.850Z,38.70
2022-12-03T04:35:26.890Z,36.30
2022-12-03T04:36:26.832Z,35.20
2022-12-03T04:37:26.832Z,38.40
2022-12-03T04:38:26.810Z,37.00
2022-12-03T04:39:26.792Z,34.40
2022-12-03T04:40:26.810Z,37.00
2022-12-03T04:41:26.773Z,35.70
2022-12-03T04:42:26.773Z,36.20
2022-12-03T04:43:26.762Z,35.90
2022-12-03T04:44:26.758Z,36.70
2022-12-03T04:45:26.754Z,37.00
2022-12-03T04:46:26.776Z,35.80
2022-12-03T04:47:26.717Z,36.10
2022-12-03T04:48:26.714Z,36.50
2022-12-03T04:49:26.695Z,35.50
2022-12-03T04:50:26.726Z,35.80
2022-12-03T04:51:26.676Z,36.30
2022-12-03T04:52:26.674Z,34.70
2022-12-03T04:53:26.656Z,37.40
2022-12-03T04:54:26.654Z,35.70
2022-12-03T04:55:26.664Z,37.20
2022-12-03T04:56:26.635Z,35.90
2022-12-03T04:57:26.616Z,35.50
2022-12-03T04:58:26.617Z,37.80
2022-12-03T04:59:26.597Z,38.00
2022-12-03T05:00:26.619Z,35.70
2022-12-03T05:01:26.647Z,39.00
2022-12-03T05:02:26.737Z,37.70
2022-12-03T05:03:26.559Z,37.30
2022-12-03T05:04:26.548Z,38.00
2022-12-03T05:05:26.558Z,36.20
2022-12-03T05:06:26.538Z,40.00
2022-12-03T05:07:26.575Z,37.10
2022-12-03T05:08:26.517Z,36.60
2022-12-03T05:09:26.499Z,37.50
2022-12-03T05:10:26.517Z,38.70
2022-12-03T05:11:26.481Z,37.20
2022-12-03T05:12:26.478Z,38.90
2022-12-03T05:13:26.459Z,36.70
2022-12-03T05:14:26.458Z,40.10
2022-12-03T05:15:26.451Z,38.00
2022-12-03T05:16:26.494Z,36.80
2022-12-03T05:17:26.421Z,39.00
2022-12-03T05:18:26.413Z,37.90
2022-12-03T05:19:26.400Z,34.90
2022-12-03T05:20:26.412Z,38.50
2022-12-03T05:21:26.380Z,37.30
2022-12-03T05:22:26.374Z,38.30
2022-12-03T05:23:26.361Z,39.10
2022-12-03T05:24:26.363Z,37.70
2022-12-03T05:25:26.352Z,39.40
2022-12-03T05:26:26.344Z,37.00
2022-12-03T05:27:26.325Z,38.20
2022-12-03T05:28:26.323Z,38.30
2022-12-03T05:29:26.302Z,35.50
2022-12-03T05:30:26.380Z,38.30
2022-12-03T05:31:26.305Z,37.70
2022-12-03T05:32:26.284Z,37.50
2022-12-03T05:33:26.284Z,38.70
2022-12-03T05:34:26.255Z,36.50
2022-12-03T05:35:26.256Z,35.50
2022-12-03T05:36:26.243Z,37.10
2022-12-03T05:37:26.216Z,32.80
2022-12-03T05:38:26.215Z,34.50
2022-12-03T05:39:26.196Z,34.60
2022-12-03T05:40:26.213Z,32.40
2022-12-03T05:41:26.187Z,33.20
2022-12-03T05:42:26.175Z,33.10
2022-12-03T05:43:26.158Z,32.50
2022-12-03T05:44:26.157Z,32.40
2022-12-03T05:45:26.888Z,33.00
2022-12-03T05:46:26.256Z,30.10
2022-12-03T05:47:26.129Z,33.50
2022-12-03T05:48:26.117Z,33.30
2022-12-03T05:49:26.099Z,30.10
2022-12-03T05:50:26.119Z,32.40
2022-12-03T05:51:26.089Z,36.00
2022-12-03T05:52:26.078Z,37.70
2022-12-03T05:53:26.059Z,42.20
2022-12-03T05:54:26.058Z,33.40
2022-12-03T05:55:26.073Z,32.20
2022-12-03T05:56:26.040Z,30.50
2022-12-03T05:57:26.038Z,33.40
2022-12-03T05:58:26.018Z,31.20
2022-12-03T05:59:26.002Z,28.80
2022-12-03T06:00:26.021Z,31.20
2022-12-03T06:01:26.010Z,30.80
2022-12-03T06:02:26.052Z,28.90
2022-12-03T06:03:26.182Z,31.30
2022-12-03T06:04:25.952Z,29.60
2022-12-03T06:05:25.979Z,28.90
2022-12-03T06:06:25.937Z,30.30
2022-12-03T06:07:25.974Z,27.80
2022-12-03T06:08:25.925Z,31.80
2022-12-03T06:09:25.903Z,29.70
2022-12-03T06:10:25.915Z,27.70
2022-12-03T06:11:25.893Z,29.90
2022-12-03T06:12:25.875Z,28.70
2022-12-03T06:13:25.862Z,28.70
2022-12-03T06:14:25.854Z,30.30
2022-12-03T06:15:25.863Z,29.50
2022-12-03T06:16:25.876Z,29.70
2022-12-03T06:17:25.833Z,29.80
2022-12-03T06:18:25.839Z,28.30
2022-12-03T06:19:25.819Z,28.70
2022-12-03T06:20:25.825Z,29.80
2022-12-03T06:21:25.789Z,29.20
2022-12-03T06:22:25.786Z,30.00
2022-12-03T06:23:25.765Z,29.40
2022-12-03T06:24:25.758Z,27.80
2022-12-03T06:25:25.770Z,30.00
2022-12-03T06:26:25.738Z,27.00
2022-12-03T06:27:25.728Z,29.70
2022-12-03T06:28:25.718Z,29.70
2022-12-03T06:29:25.706Z,27.70
2022-12-03T06:30:25.718Z,29.90
2022-12-03T06:31:25.733Z,29.40
2022-12-03T06:32:25.678Z,30.20
2022-12-03T06:33:25.658Z,29.80
2022-12-03T06:34:25.658Z,28.10
2022-12-03T06:35:25.661Z,30.60
2022-12-03T06:36:25.648Z,29.40
2022-12-03T06:37:25.620Z,29.00
2022-12-03T06:38:25.620Z,30.50
2022-12-03T06:39:25.610Z,28.40
2022-12-03T06:40:25.620Z,30.60
2022-12-03T06:41:25.587Z,27.70
2022-12-03T06:42:25.581Z,31.30
2022-12-03T06:43:25.561Z,28.60
2022-12-03T06:44:25.561Z,30.80
2022-12-03T06:45:25.582Z,29.20
2022-12-03T06:46:25.576Z,30.00
2022-12-03T06:47:25.523Z,30.80
2022-12-03T06:48:25.531Z,28.50
2022-12-03T06:49:25.502Z,30.20
2022-12-03T06:50:25.520Z,31.70
2022-12-03T06:51:25.493Z,29.30
2022-12-03T06:52:25.483Z,32.10
2022-12-03T06:53:25.471Z,31.30
2022-12-03T06:54:25.464Z,29.40
2022-12-03T06:55:25.475Z,32.10
2022-12-03T06:56:29.681Z,31.80
2022-12-03T06:57:26.382Z,30.40
2022-12-03T06:58:25.366Z,31.60
2022-12-03T06:59:25.354Z,32.40
2022-12-03T07:00:25.364Z,31.10
2022-12-03T07:01:25.399Z,32.80
2022-12-03T07:02:25.457Z,31.40
2022-12-03T07:03:25.406Z,30.40
2022-12-03T07:04:25.375Z,32.00
2022-12-03T07:05:25.367Z,29.70
2022-12-03T07:06:25.347Z,32.90
2022-12-03T07:07:25.373Z,34.90
2022-12-03T07:08:25.278Z,32.10
2022-12-03T07:09:25.254Z,33.40
2022-12-03T07:10:25.265Z,32.00
2022-12-03T07:11:25.227Z,31.80
2022-12-03T07:12:25.239Z,35.30
2022-12-03T07:13:25.209Z,32.30
2022-12-03T07:14:25.208Z,34.00
2022-12-03T07:15:25.212Z,33.20
2022-12-03T07:16:25.230Z,30.80
2022-12-03T07:17:25.178Z,33.40
2022-12-03T07:18:25.178Z,34.30
2022-12-03T07:19:30.724Z,32.40
2022-12-03T07:20:26.169Z,35.50
2022-12-03T07:21:25.134Z,33.40
2022-12-03T07:22:25.130Z,32.10
2022-12-03T07:23:25.116Z,35.50
2022-12-03T07:24:25.110Z,34.20
2022-12-03T07:25:25.100Z,33.30
2022-12-03T07:26:25.108Z,35.00
2022-12-03T07:27:25.071Z,32.80
2022-12-03T07:28:25.062Z,34.20
2022-12-03T07:29:25.053Z,35.90
2022-12-03T07:30:25.050Z,34.20
2022-12-03T07:31:25.139Z,35.80
2022-12-03T07:32:25.031Z,34.50
2022-12-03T07:33:25.012Z,35.10
2022-12-03T07:34:25.012Z,36.50
2022-12-03T07:35:24.995Z,34.10
2022-12-03T07:36:25.005Z,36.80
2022-12-03T07:37:24.974Z,35.80
2022-12-03T07:38:24.971Z,36.10
2022-12-03T07:39:24.954Z,33.70
2022-12-03T07:40:24.954Z,34.90
2022-12-03T07:41:24.952Z,36.90
2022-12-03T07:42:24.925Z,33.90
2022-12-03T07:43:24.939Z,36.50
2022-12-03T07:44:24.905Z,35.40
2022-12-03T07:45:24.895Z,33.60
2022-12-03T07:46:24.984Z,35.50
2022-12-03T07:47:24.876Z,34.20
2022-12-03T07:48:24.867Z,35.80
2022-12-03T07:49:24.856Z,37.10
2022-12-03T07:50:24.847Z,35.00
2022-12-03T07:51:28.913Z,36.30
2022-12-03T07:52:25.825Z,35.40
2022-12-03T07:53:24.816Z,35.60
2022-12-03T07:54:24.807Z,36.70
2022-12-03T07:55:24.801Z,33.60
2022-12-03T07:56:24.807Z,37.80
2022-12-03T07:57:24.780Z,36.20
2022-12-03T07:58:24.771Z,37.10
2022-12-03T07:59:24.756Z,39.60
2022-12-03T08:00:24.748Z,38.40
2022-12-03T08:01:24.802Z,42.10
2022-12-03T08:02:24.750Z,43.30
2022-12-03T08:03:24.709Z,39.70
2022-12-03T08:04:24.708Z,37.00
2022-12-03T08:05:24.690Z,41.50
2022-12-03T08:06:24.707Z,40.40
2022-12-03T08:07:24.722Z,40.20
2022-12-03T08:08:24.671Z,36.50
2022-12-03T08:09:24.651Z,36.90
2022-12-03T08:10:24.658Z,38.90
2022-12-03T08:11:24.651Z,37.60
2022-12-03T08:12:24.639Z,39.30
2022-12-03T08:13:24.616Z,38.30
2022-12-03T08:14:24.611Z,36.80
2022-12-03T08:15:24.601Z,39.40
2022-12-03T08:16:24.703Z,36.20
2022-12-03T08:17:24.572Z,39.50
2022-12-03T08:18:24.572Z,37.50
2022-12-03T08:19:24.553Z,36.00
2022-12-03T08:20:24.564Z,38.60
2022-12-03T08:21:24.582Z,36.90
2022-12-03T08:22:24.533Z,38.30
2022-12-03T08:23:24.517Z,38.70
2022-12-03T08:24:24.513Z,36.70
2022-12-03T08:25:24.496Z,39.50
2022-12-03T08:26:24.517Z,36.90
2022-12-03T08:27:24.473Z,36.90
2022-12-03T08:28:24.472Z,37.10
2022-12-03T08:29:24.456Z,39.20
2022-12-03T08:30:24.445Z,37.90
2022-12-03T08:31:29.366Z,37.60
2022-12-03T08:32:25.426Z,40.00
2022-12-03T08:33:24.416Z,38.30
2022-12-03T08:34:24.413Z,37.20
2022-12-03T08:35:24.412Z,39.30
2022-12-03T08:36:24.413Z,37.10
2022-12-03T08:37:24.378Z,41.40
2022-12-03T08:38:24.367Z,39.30
2022-12-03T08:39:24.353Z,38.50
2022-12-03T08:40:24.355Z,43.20
2022-12-03T08:41:24.350Z,39.70
2022-12-03T08:42:24.329Z,40.60
2022-12-03T08:43:24.314Z,40.60
2022-12-03T08:44:24.316Z,39.50
2022-12-03T08:45:24.371Z,40.60
2022-12-03T08:46:24.345Z,39.90
2022-12-03T08:47:24.280Z,41.70
2022-12-03T08:48:24.262Z,41.80
2022-12-03T08:49:24.258Z,39.40
2022-12-03T08:50:24.272Z,43.90
2022-12-03T08:51:24.260Z,42.10
2022-12-03T08:52:24.228Z,40.10
2022-12-03T08:53:24.221Z,40.70
2022-12-03T08:54:24.201Z,42.90
2022-12-03T08:55:24.200Z,43.10
2022-12-03T08:56:24.209Z,40.30
2022-12-03T08:57:24.181Z,41.90
2022-12-03T08:58:24.163Z,40.90
2022-12-03T08:59:24.160Z,41.40
2022-12-03T09:00:24.231Z,42.70
2022-12-03T09:01:24.338Z,40.40
2022-12-03T09:02:24.132Z,43.10
2022-12-03T09:03:24.132Z,41.10
2022-12-03T09:04:24.198Z,43.10
2022-12-03T09:05:24.102Z,44.40
2022-12-03T09:06:24.103Z,42.60
2022-12-03T09:07:24.084Z,42.60
2022-12-03T09:08:24.067Z,43.10
2022-12-03T09:09:24.068Z,42.50
2022-12-03T09:10:24.092Z,43.00
2022-12-03T09:11:24.055Z,41.40
2022-12-03T09:12:24.025Z,41.00
2022-12-03T09:13:24.023Z,42.50
2022-12-03T09:14:24.005Z,40.70
2022-12-03T09:15:23.998Z,43.10
2022-12-03T09:16:24.088Z,42.50
2022-12-03T09:17:23.975Z,44.30
2022-12-03T09:18:23.967Z,42.60
2022-12-03T09:19:23.963Z,41.70
2022-12-03T09:20:23.946Z,45.40
2022-12-03T09:21:23.966Z,42.80
2022-12-03T09:22:23.926Z,42.50
2022-12-03T09:23:23.918Z,44.30
2022-12-03T09:24:23.907Z,41.00
2022-12-03T09:25:23.897Z,44.80
2022-12-03T09:26:23.898Z,42.40
2022-12-03T09:27:23.879Z,40.70
2022-12-03T09:28:23.858Z,44.90
2022-12-03T09:29:23.859Z,43.30
2022-12-03T09:30:23.851Z,42.30
2022-12-03T09:31:23.926Z,44.80
2022-12-03T09:32:23.936Z,44.30
2022-12-03T09:33:23.819Z,43.70
2022-12-03T09:34:23.807Z,44.50
2022-12-03T09:35:23.797Z,42.80
2022-12-03T09:36:23.825Z,45.50
2022-12-03T09:37:23.781Z,41.40
2022-12-03T09:38:23.761Z,42.70
2022-12-03T09:39:23.760Z,45.50
2022-12-03T09:40:23.770Z,41.90
2022-12-03T09:41:23.762Z,43.70
2022-12-03T09:42:23.722Z,43.20
2022-12-03T09:43:24.639Z,45.30
2022-12-03T09:44:24.701Z,43.00
2022-12-03T09:45:23.702Z,44.50
2022-12-03T09:46:23.755Z,42.90
2022-12-03T09:47:23.683Z,45.50
2022-12-03T09:48:23.670Z,46.20
2022-12-03T09:49:23.661Z,44.40
2022-12-03T09:50:23.645Z,45.30
2022-12-03T09:51:23.736Z,44.30
2022-12-03T09:52:23.623Z,47.40
2022-12-03T09:53:23.623Z,45.20
2022-12-03T09:54:23.605Z,43.70
2022-12-03T09:55:23.601Z,45.30
2022-12-03T09:56:23.604Z,40.90
2022-12-03T09:57:23.583Z,42.70
2022-12-03T09:58:23.568Z,42.00
2022-12-03T09:59:23.564Z,42.50
2022-12-03T10:00:23.546Z,42.10
2022-12-03T10:01:27.899Z,41.70
2022-12-03T10:02:24.525Z,44.90
2022-12-03T10:03:29.443Z,44.40
2022-12-03T10:04:24.572Z,41.90
2022-12-03T10:05:23.506Z,43.60
2022-12-03T10:06:23.504Z,42.80
2022-12-03T10:07:23.477Z,42.10
2022-12-03T10:08:25.256Z,43.00
2022-12-03T10:09:23.465Z,42.30
2022-12-03T10:10:23.448Z,44.60
2022-12-03T10:11:23.464Z,41.20
2022-12-03T10:12:23.433Z,41.80
2022-12-03T10:13:25.774Z,43.40
2022-12-03T10:14:23.434Z,39.10
2022-12-03T10:15:23.399Z,42.90
2022-12-03T10:16:23.449Z,40.70
2022-12-03T10:17:23.384Z,44.40
2022-12-03T10:18:23.369Z,43.70
2022-12-03T10:19:23.367Z,42.00
2022-12-03T10:20:23.349Z,42.20
2022-12-03T10:21:23.362Z,40.00
2022-12-03T10:22:23.330Z,46.60
2022-12-03T10:23:23.360Z,42.60
2022-12-03T10:24:23.311Z,40.50
2022-12-03T10:25:23.311Z,42.30
2022-12-03T10:26:23.301Z,41.80
2022-12-03T10:27:23.282Z,42.80
2022-12-03T10:28:23.271Z,42.80
2022-12-03T10:29:25.817Z,41.00
2022-12-03T10:30:24.243Z,41.80
2022-12-03T10:31:23.318Z,41.20
2022-12-03T10:32:23.233Z,41.90
2022-12-03T10:33:23.223Z,42.80
2022-12-03T10:34:23.215Z,41.90
2022-12-03T10:35:23.213Z,42.90
2022-12-03T10:36:23.197Z,42.10
2022-12-03T10:37:23.202Z,40.70
2022-12-03T10:38:23.190Z,42.80
2022-12-03T10:39:23.172Z,41.90
2022-12-03T10:40:23.156Z,43.60
2022-12-03T10:41:23.146Z,45.00
2022-12-03T10:42:23.146Z,40.70
2022-12-03T10:43:23.128Z,44.50
2022-12-03T10:44:23.116Z,41.10
2022-12-03T10:45:23.119Z,41.70
2022-12-03T10:46:23.167Z,43.10
2022-12-03T10:47:23.258Z,40.90
2022-12-03T10:48:23.068Z,40.60
2022-12-03T10:49:23.068Z,39.90
2022-12-03T10:50:23.049Z,42.40
2022-12-03T10:51:23.047Z,40.20
2022-12-03T10:52:25.979Z,41.90
2022-12-03T10:53:23.026Z,44.30
2022-12-03T10:54:23.008Z,41.90
2022-12-03T10:55:23.114Z,43.40
2022-12-03T10:56:22.995Z,41.60
2022-12-03T10:57:23.006Z,45.00
2022-12-03T10:58:22.982Z,41.40
2022-12-03T10:59:22.970Z,41.60
2022-12-03T11:00:22.949Z,45.50
2022-12-03T11:01:23.030Z,42.50
2022-12-03T11:02:22.949Z,42.00
2022-12-03T11:03:22.977Z,43.30
2022-12-03T11:04:22.910Z,45.80
2022-12-03T11:05:22.906Z,42.40
2022-12-03T11:06:22.893Z,45.80
2022-12-03T11:07:22.903Z,41.00
2022-12-03T11:08:22.878Z,43.80
2022-12-03T11:09:22.868Z,42.70
2022-12-03T11:10:22.856Z,47.00
2022-12-03T11:11:22.850Z,46.40
2022-12-03T11:12:22.853Z,43.00
2022-12-03T11:13:22.823Z,45.30
2022-12-03T11:14:23.245Z,42.30
2022-12-03T11:15:22.804Z,43.20
2022-12-03T11:16:22.848Z,43.80
2022-12-03T11:17:22.804Z,43.40
2022-12-03T11:18:22.774Z,43.40
2022-12-03T11:19:22.763Z,43.60
2022-12-03T11:20:23.251Z,48.60
2022-12-03T11:21:22.751Z,46.70
2022-12-03T11:22:22.744Z,47.70
2022-12-03T11:23:22.734Z,47.10
2022-12-03T11:24:22.714Z,46.50
2022-12-03T11:25:22.713Z,48.00
2022-12-03T11:26:22.694Z,46.30
2022-12-03T11:27:22.705Z,48.00
2022-12-03T11:28:22.675Z,48.70
2022-12-03T11:29:22.677Z,52.00
2022-12-03T11:30:22.654Z,51.50
2022-12-03T11:31:22.745Z,46.70
2022-12-03T11:32:22.647Z,48.70
2022-12-03T11:33:22.635Z,47.50
2022-12-03T11:34:22.628Z,47.30
2022-12-03T11:35:22.608Z,43.10
2022-12-03T11:36:36.697Z,45.70
2022-12-03T11:37:23.617Z,43.80
2022-12-03T11:38:22.579Z,44.60
2022-12-03T11:39:22.575Z,44.20
2022-12-03T11:40:22.549Z,44.40
2022-12-03T11:41:22.555Z,45.70
2022-12-03T11:42:22.564Z,42.30
2022-12-03T11:43:22.550Z,44.20
2022-12-03T11:44:22.518Z,44.60
2022-12-03T11:45:22.518Z,44.10
2022-12-03T11:46:22.577Z,45.90
2022-12-03T11:47:22.507Z,45.30
2022-12-03T11:48:22.481Z,46.80
2022-12-03T11:49:22.470Z,45.50
2022-12-03T11:50:22.459Z,45.20
2022-12-03T11:51:22.452Z,46.90
2022-12-03T11:52:22.451Z,45.70
2022-12-03T11:53:22.458Z,46.50
2022-12-03T11:54:22.453Z,48.00
2022-12-03T11:55:22.412Z,46.30
2022-12-03T11:56:22.395Z,48.10
2022-12-03T11:57:22.411Z,50.60
2022-12-03T11:58:22.374Z,50.70
2022-12-03T11:59:22.371Z,45.60
2022-12-03T12:00:22.360Z,46.90
2022-12-03T12:01:22.352Z,45.30
2022-12-03T12:02:22.363Z,45.00
2022-12-03T12:03:22.442Z,45.70
2022-12-03T12:04:22.352Z,43.30
2022-12-03T12:05:22.314Z,46.10
2022-12-03T12:06:22.296Z,44.80
2022-12-03T12:07:22.314Z,45.20
2022-12-03T12:08:22.283Z,46.30
2022-12-03T12:09:22.276Z,44.40
2022-12-03T12:10:22.256Z,44.80
2022-12-03T12:11:22.254Z,45.00
2022-12-03T12:12:22.256Z,44.40
2022-12-03T12:13:22.235Z,48.70
2022-12-03T12:14:22.236Z,44.40
2022-12-03T12:15:22.224Z,46.40
2022-12-03T12:16:22.229Z,46.10
2022-12-03T12:17:22.207Z,46.70
2022-12-03T12:18:22.178Z,48.00
2022-12-03T12:19:22.167Z,46.00
2022-12-03T12:20:22.157Z,47.00
2022-12-03T12:21:22.148Z,45.50
2022-12-03T12:22:22.156Z,46.50
2022-12-03T12:23:22.132Z,44.30
2022-12-03T12:24:22.128Z,45.20
2022-12-03T12:25:22.110Z,45.80
2022-12-03T12:26:22.101Z,46.10
2022-12-03T12:27:22.111Z,47.00
2022-12-03T12:28:22.080Z,45.90
2022-12-03T12:29:22.073Z,48.40
2022-12-03T12:30:22.067Z,46.10
2022-12-03T12:31:22.115Z,45.60
2022-12-03T12:32:22.057Z,49.20
2022-12-03T12:33:22.040Z,47.00
2022-12-03T12:34:22.020Z,49.80
2022-12-03T12:35:22.012Z,47.90
2022-12-03T12:36:22.000Z,46.50
2022-12-03T12:37:22.012Z,46.60
2022-12-03T12:38:21.992Z,45.60
2022-12-03T12:39:21.972Z,48.00
2022-12-03T12:40:21.959Z,46.90
2022-12-03T12:41:21.961Z,47.20
2022-12-03T12:42:21.953Z,47.70
2022-12-03T12:43:24.100Z,49.00
2022-12-03T12:44:21.924Z,57.60
2022-12-03T12:45:21.923Z,58.20
2022-12-03T12:46:49.083Z,55.40
2022-12-03T12:47:22.965Z,55.10
2022-12-03T12:48:21.882Z,56.00
2022-12-03T12:49:21.884Z,51.80
2022-12-03T12:50:21.854Z,51.90
2022-12-03T12:51:21.854Z,47.40
2022-12-03T12:52:21.856Z,43.80